sensor_id;sensor_type;location;lat;lon;timestamp;P1;durP1;ratioP1;P2;durP2;ratioP2
20984;SDS011;10651;47.552;7.606;2022-12-18T06:21:28;97.90;;;44.30;;
20984;SDS011;10651;47.552;7.606;2022-12-18T06:23:55;100.00;;;46.10;;
20984;SDS011;10651;47.552;7.606;2022-12-18T06:26:21;97.93;;;45.27;;
20984;SDS011;10651;47.552;7.606;2022-12-18T06:28:49;98.03;;;44.53;;
20984;SDS011;10651;47.552;7.606;2022-12-18T06:31:15;101.00;;;43.23;;
20984;SDS011;10651;47.552;7.606;2022-12-18T06:33:41;101.70;;;45.43;;
20984;SDS011;10651;47.552;7.606;2022-12-18T06:36:09;97.00;;;45.20;;
20984;SDS011;10651;47.552;7.606;2022-12-18T06:38:37;97.83;;;45.50;;
20984;SDS011;10651;47.552;7.606;2022-12-18T06:41:08;83.27;;;38.87;;
20984;SDS011;10651;47.552;7.606;2022-12-18T06:43:38;88.83;;;41.97;;
20984;SDS011;10651;47.552;7.606;2022-12-18T06:46:05;91.37;;;43.50;;
20984;SDS011;10651;47.552;7.606;2022-12-18T06:48:31;77.93;;;39.47;;
20984;SDS011;10651;47.552;7.606;2022-12-18T06:51:03;89.23;;;43.17;;
20984;SDS011;10651;47.552;7.606;2022-12-18T06:53:32;84.10;;;41.43;;
20984;SDS011;10651;47.552;7.606;2022-12-18T06:56:02;91.20;;;44.30;;
20984;SDS011;10651;47.552;7.606;2022-12-18T06:58:29;88.70;;;41.03;;
20984;SDS011;10651;47.552;7.606;2022-12-18T07:00:59;81.93;;;35.27;;
20984;SDS011;10651;47.552;7.606;2022-12-18T07:03:28;82.97;;;43.03;;
20984;SDS011;10651;47.552;7.606;2022-12-18T07:05:55;72.00;;;34.63;;
20984;SDS011;10651;47.552;7.606;2022-12-18T07:08:21;88.13;;;43.13;;
20984;SDS011;10651;47.552;7.606;2022-12-18T07:10:47;82.67;;;42.30;;
20984;SDS011;10651;47.552;7.606;2022-12-18T07:13:14;80.40;;;41.77;;
20984;SDS011;10651;47.552;7.606;2022-12-18T07:15:40;81.23;;;41.97;;
20984;SDS011;10651;47.552;7.606;2022-12-18T07:18:12;84.73;;;42.83;;
20984;SDS011;10651;47.552;7.606;2022-12-18T07:20:45;152.50;;;64.90;;
20984;SDS011;10651;47.552;7.606;2022-12-18T07:23:11;105.13;;;51.20;;
20984;SDS011;10651;47.552;7.606;2022-12-18T07:25:37;100.23;;;49.07;;
20984;SDS011;10651;47.552;7.606;2022-12-18T07:28:06;86.90;;;44.00;;
20984;SDS011;10651;47.552;7.606;2022-12-18T07:30:40;84.40;;;41.87;;
20984;SDS011;10651;47.552;7.606;2022-12-18T07:33:24;90.23;;;44.43;;
20984;SDS011;10651;47.552;7.606;2022-12-18T07:35:51;87.00;;;44.05;;
20984;SDS011;10651;47.552;7.606;2022-12-18T07:38:16;96.77;;;49.10;;
20984;SDS011;10651;47.552;7.606;2022-12-18T07:40:42;81.53;;;37.63;;
20984;SDS011;10651;47.552;7.606;2022-12-18T07:43:08;78.30;;;35.97;;
20984;SDS011;10651;47.552;7.606;2022-12-18T07:45:33;74.87;;;35.17;;
20984;SDS011;10651;47.552;7.606;2022-12-18T07:47:59;94.97;;;44.83;;
20984;SDS011;10651;47.552;7.606;2022-12-18T07:50:25;95.30;;;46.63;;
20984;SDS011;10651;47.552;7.606;2022-12-18T07:52:50;91.50;;;46.10;;
20984;SDS011;10651;47.552;7.606;2022-12-18T07:55:16;92.17;;;44.87;;
20984;SDS011;10651;47.552;7.606;2022-12-18T07:57:42;98.43;;;45.27;;
20984;SDS011;10651;47.552;7.606;2022-12-18T08:00:07;98.87;;;47.67;;
20984;SDS011;10651;47.552;7.606;2022-12-18T08:02:33;100.83;;;46.97;;
20984;SDS011;10651;47.552;7.606;2022-12-18T08:04:59;95.23;;;46.27;;
20984;SDS011;10651;47.552;7.606;2022-12-18T08:07:25;89.90;;;43.07;;
20984;SDS011;10651;47.552;7.606;2022-12-18T08:09:53;84.53;;;43.37;;
20984;SDS011;10651;47.552;7.606;2022-12-18T08:12:19;101.70;;;46.73;;
20984;SDS011;10651;47.552;7.606;2022-12-18T08:14:47;91.20;;;45.80;;
20984;SDS011;10651;47.552;7.606;2022-12-18T08:17:13;91.67;;;42.87;;
20984;SDS011;10651;47.552;7.606;2022-12-18T08:19:39;88.07;;;46.23;;
20984;SDS011;10651;47.552;7.606;2022-12-18T08:22:04;91.63;;;45.97;;
20984;SDS011;10651;47.552;7.606;2022-12-18T08:27:20;86.23;;;43.47;;
20984;SDS011;10651;47.552;7.606;2022-12-18T08:54:04;71.40;;;38.73;;
20984;SDS011;10651;47.552;7.606;2022-12-18T09:00:03;68.87;;;39.80;;
20984;SDS011;10651;47.552;7.606;2022-12-18T09:03:16;76.53;;;40.67;;
20984;SDS011;10651;47.552;7.606;2022-12-18T09:05:42;66.20;;;31.90;;
20984;SDS011;10651;47.552;7.606;2022-12-18T09:08:10;63.80;;;32.27;;
20984;SDS011;10651;47.552;7.606;2022-12-18T09:10:45;79.87;;;36.97;;
20984;SDS011;10651;47.552;7.606;2022-12-18T09:16:10;66.50;;;35.27;;
20984;SDS011;10651;47.552;7.606;2022-12-18T09:18:38;67.70;;;33.80;;
20984;SDS011;10651;47.552;7.606;2022-12-18T09:21:10;70.50;;;34.73;;
20984;SDS011;10651;47.552;7.606;2022-12-18T09:23:51;70.20;;;33.60;;
20984;SDS011;10651;47.552;7.606;2022-12-18T09:29:38;63.40;;;32.03;;
20984;SDS011;10651;47.552;7.606;2022-12-18T09:32:03;63.37;;;32.50;;
20984;SDS011;10651;47.552;7.606;2022-12-18T09:34:29;68.75;;;38.65;;
20984;SDS011;10651;47.552;7.606;2022-12-18T09:39:47;64.40;;;35.63;;
20984;SDS011;10651;47.552;7.606;2022-12-18T09:42:17;58.60;;;33.77;;
20984;SDS011;10651;47.552;7.606;2022-12-18T09:44:58;63.67;;;33.80;;
20984;SDS011;10651;47.552;7.606;2022-12-18T09:47:48;64.77;;;33.13;;
20984;SDS011;10651;47.552;7.606;2022-12-18T09:53:02;62.60;;;32.83;;
20984;SDS011;10651;47.552;7.606;2022-12-18T09:58:25;57.10;;;31.73;;
20984;SDS011;10651;47.552;7.606;2022-12-18T10:00:57;53.93;;;29.93;;
20984;SDS011;10651;47.552;7.606;2022-12-18T10:03:26;50.07;;;31.17;;
20984;SDS011;10651;47.552;7.606;2022-12-18T10:14:18;54.72;;;34.00;;
20984;SDS011;10651;47.552;7.606;2022-12-18T10:20:52;54.38;;;29.45;;
20984;SDS011;10651;47.552;7.606;2022-12-18T10:23:18;54.95;;;30.02;;
20984;SDS011;10651;47.552;7.606;2022-12-18T10:25:53;52.97;;;29.83;;
20984;SDS011;10651;47.552;7.606;2022-12-18T10:28:31;47.60;;;28.20;;
20984;SDS011;10651;47.552;7.606;2022-12-18T10:30:59;52.13;;;29.40;;
20984;SDS011;10651;47.552;7.606;2022-12-18T10:33:29;50.40;;;29.02;;
20984;SDS011;10651;47.552;7.606;2022-12-18T10:35:56;54.63;;;28.73;;
20984;SDS011;10651;47.552;7.606;2022-12-18T10:38:26;48.80;;;29.85;;
20984;SDS011;10651;47.552;7.606;2022-12-18T10:40:55;43.67;;;27.83;;
20984;SDS011;10651;47.552;7.606;2022-12-18T10:43:23;48.90;;;28.40;;
20984;SDS011;10651;47.552;7.606;2022-12-18T10:54:02;47.92;;;29.85;;
20984;SDS011;10651;47.552;7.606;2022-12-18T10:56:46;49.65;;;29.80;;
20984;SDS011;10651;47.552;7.606;2022-12-18T10:59:15;50.97;;;28.95;;
20984;SDS011;10651;47.552;7.606;2022-12-18T11:01:53;52.88;;;28.77;;
20984;SDS011;10651;47.552;7.606;2022-12-18T11:04:25;48.85;;;28.58;;
20984;SDS011;10651;47.552;7.606;2022-12-18T11:11:53;49.80;;;28.55;;
20984;SDS011;10651;47.552;7.606;2022-12-18T11:14:54;51.75;;;28.25;;
20984;SDS011;10651;47.552;7.606;2022-12-18T11:17:31;48.55;;;28.27;;
20984;SDS011;10651;47.552;7.606;2022-12-18T11:20:02;54.42;;;28.27;;
20984;SDS011;10651;47.552;7.606;2022-12-18T11:22:30;49.25;;;28.05;;
20984;SDS011;10651;47.552;7.606;2022-12-18T11:24:59;49.30;;;28.02;;
20984;SDS011;10651;47.552;7.606;2022-12-18T11:27:28;44.78;;;27.45;;
20984;SDS011;10651;47.552;7.606;2022-12-18T11:30:06;50.15;;;28.73;;
20984;SDS011;10651;47.552;7.606;2022-12-18T11:32:40;48.22;;;27.05;;
20984;SDS011;10651;47.552;7.606;2022-12-18T11:37:42;52.63;;;28.05;;
20984;SDS011;10651;47.552;7.606;2022-12-18T11:40:13;51.25;;;27.95;;
20984;SDS011;10651;47.552;7.606;2022-12-18T11:42:52;49.58;;;30.25;;
20984;SDS011;10651;47.552;7.606;2022-12-18T11:45:27;46.15;;;27.58;;
20984;SDS011;10651;47.552;7.606;2022-12-18T11:50:51;46.67;;;27.13;;
20984;SDS011;10651;47.552;7.606;2022-12-18T11:53:19;51.08;;;28.52;;
20984;SDS011;10651;47.552;7.606;2022-12-18T12:14:43;45.72;;;27.05;;
20984;SDS011;10651;47.552;7.606;2022-12-18T12:20:00;49.65;;;28.45;;
20984;SDS011;10651;47.552;7.606;2022-12-18T12:22:34;50.72;;;28.63;;
20984;SDS011;10651;47.552;7.606;2022-12-18T12:25:42;50.35;;;27.80;;
20984;SDS011;10651;47.552;7.606;2022-12-18T12:39:16;47.00;;;27.25;;
20984;SDS011;10651;47.552;7.606;2022-12-18T12:41:46;47.80;;;27.30;;
20984;SDS011;10651;47.552;7.606;2022-12-18T12:44:35;44.65;;;26.38;;
20984;SDS011;10651;47.552;7.606;2022-12-18T12:47:15;47.78;;;26.98;;
20984;SDS011;10651;47.552;7.606;2022-12-18T12:49:45;49.50;;;27.48;;
20984;SDS011;10651;47.552;7.606;2022-12-18T12:52:31;51.75;;;27.30;;
20984;SDS011;10651;47.552;7.606;2022-12-18T12:55:02;51.90;;;28.50;;
20984;SDS011;10651;47.552;7.606;2022-12-18T12:57:36;45.88;;;27.40;;
20984;SDS011;10651;47.552;7.606;2022-12-18T13:00:13;50.58;;;27.40;;
20984;SDS011;10651;47.552;7.606;2022-12-18T13:02:59;48.92;;;27.35;;
20984;SDS011;10651;47.552;7.606;2022-12-18T13:05:46;50.53;;;26.40;;
20984;SDS011;10651;47.552;7.606;2022-12-18T13:08:26;47.85;;;27.92;;
20984;SDS011;10651;47.552;7.606;2022-12-18T13:10:54;52.97;;;28.58;;
20984;SDS011;10651;47.552;7.606;2022-12-18T13:14:00;45.70;;;25.77;;
20984;SDS011;10651;47.552;7.606;2022-12-18T13:16:25;44.92;;;27.02;;
20984;SDS011;10651;47.552;7.606;2022-12-18T13:18:56;44.85;;;25.95;;
20984;SDS011;10651;47.552;7.606;2022-12-18T13:21:30;45.37;;;26.10;;
20984;SDS011;10651;47.552;7.606;2022-12-18T13:24:14;43.35;;;26.33;;
20984;SDS011;10651;47.552;7.606;2022-12-18T13:26:47;52.83;;;27.90;;
20984;SDS011;10651;47.552;7.606;2022-12-18T13:29:14;48.75;;;28.52;;
20984;SDS011;10651;47.552;7.606;2022-12-18T13:32:18;50.53;;;28.37;;
20984;SDS011;10651;47.552;7.606;2022-12-18T13:34:48;48.80;;;28.38;;
20984;SDS011;10651;47.552;7.606;2022-12-18T13:37:44;49.00;;;27.90;;
20984;SDS011;10651;47.552;7.606;2022-12-18T13:45:45;54.17;;;27.93;;
20984;SDS011;10651;47.552;7.606;2022-12-18T13:48:32;49.13;;;27.13;;
20984;SDS011;10651;47.552;7.606;2022-12-18T13:51:06;49.57;;;27.30;;
20984;SDS011;10651;47.552;7.606;2022-12-18T13:53:54;51.10;;;27.80;;
20984;SDS011;10651;47.552;7.606;2022-12-18T13:56:25;47.50;;;27.53;;
20984;SDS011;10651;47.552;7.606;2022-12-18T13:59:17;43.83;;;26.93;;
20984;SDS011;10651;47.552;7.606;2022-12-18T14:01:52;49.00;;;27.10;;
20984;SDS011;10651;47.552;7.606;2022-12-18T14:04:29;48.83;;;27.37;;
20984;SDS011;10651;47.552;7.606;2022-12-18T14:06:58;57.50;;;28.67;;
20984;SDS011;10651;47.552;7.606;2022-12-18T14:09:30;46.60;;;27.73;;
20984;SDS011;10651;47.552;7.606;2022-12-18T14:11:59;47.03;;;27.20;;
20984;SDS011;10651;47.552;7.606;2022-12-18T14:14:45;47.37;;;26.33;;
20984;SDS011;10651;47.552;7.606;2022-12-18T14:17:15;52.50;;;27.73;;
20984;SDS011;10651;47.552;7.606;2022-12-18T14:19:44;53.67;;;27.37;;
20984;SDS011;10651;47.552;7.606;2022-12-18T14:22:13;51.37;;;28.03;;
20984;SDS011;10651;47.552;7.606;2022-12-18T14:24:44;56.40;;;28.23;;
20984;SDS011;10651;47.552;7.606;2022-12-18T14:27:24;50.77;;;28.60;;
20984;SDS011;10651;47.552;7.606;2022-12-18T14:29:50;48.10;;;27.30;;
20984;SDS011;10651;47.552;7.606;2022-12-18T14:32:17;49.97;;;27.67;;
20984;SDS011;10651;47.552;7.606;2022-12-18T14:34:45;45.53;;;26.17;;
20984;SDS011;10651;47.552;7.606;2022-12-18T14:37:16;51.17;;;28.63;;
20984;SDS011;10651;47.552;7.606;2022-12-18T14:40:19;48.13;;;26.93;;
20984;SDS011;10651;47.552;7.606;2022-12-18T14:42:38;50.10;;;28.23;;
20984;SDS011;10651;47.552;7.606;2022-12-18T14:48:05;50.07;;;28.47;;
20984;SDS011;10651;47.552;7.606;2022-12-18T14:50:32;46.57;;;26.27;;
20984;SDS011;10651;47.552;7.606;2022-12-18T14:52:58;51.83;;;27.40;;
20984;SDS011;10651;47.552;7.606;2022-12-18T14:55:24;52.37;;;27.47;;
20984;SDS011;10651;47.552;7.606;2022-12-18T14:57:50;49.40;;;27.30;;
20984;SDS011;10651;47.552;7.606;2022-12-18T15:00:20;49.27;;;26.20;;
20984;SDS011;10651;47.552;7.606;2022-12-18T15:02:54;50.23;;;26.57;;
20984;SDS011;10651;47.552;7.606;2022-12-18T15:07:55;51.30;;;26.63;;
20984;SDS011;10651;47.552;7.606;2022-12-18T15:10:23;52.90;;;26.57;;
20984;SDS011;10651;47.552;7.606;2022-12-18T15:18:00;48.37;;;23.93;;
20984;SDS011;10651;47.552;7.606;2022-12-18T15:20:54;46.47;;;25.30;;
20984;SDS011;10651;47.552;7.606;2022-12-18T15:26:08;44.43;;;25.53;;
20984;SDS011;10651;47.552;7.606;2022-12-18T15:28:49;50.77;;;25.40;;
20984;SDS011;10651;47.552;7.606;2022-12-18T15:33:43;47.40;;;26.13;;
20984;SDS011;10651;47.552;7.606;2022-12-18T15:36:20;47.17;;;24.37;;
20984;SDS011;10651;47.552;7.606;2022-12-18T15:38:50;41.43;;;24.10;;
20984;SDS011;10651;47.552;7.606;2022-12-18T15:41:18;53.13;;;28.27;;
20984;SDS011;10651;47.552;7.606;2022-12-18T15:43:46;42.80;;;24.53;;
20984;SDS011;10651;47.552;7.606;2022-12-18T15:46:15;44.50;;;24.30;;
20984;SDS011;10651;47.552;7.606;2022-12-18T15:48:44;52.13;;;26.17;;
20984;SDS011;10651;47.552;7.606;2022-12-18T15:51:12;44.80;;;24.27;;
20984;SDS011;10651;47.552;7.606;2022-12-18T15:53:42;47.97;;;26.30;;
20984;SDS011;10651;47.552;7.606;2022-12-18T15:56:10;46.17;;;23.30;;
20984;SDS011;10651;47.552;7.606;2022-12-18T15:58:55;44.93;;;23.83;;
20984;SDS011;10651;47.552;7.606;2022-12-18T16:01:26;50.60;;;25.30;;
20984;SDS011;10651;47.552;7.606;2022-12-18T16:03:53;44.23;;;24.10;;
20984;SDS011;10651;47.552;7.606;2022-12-18T16:06:19;45.07;;;24.77;;
20984;SDS011;10651;47.552;7.606;2022-12-18T16:08:45;41.63;;;23.20;;
20984;SDS011;10651;47.552;7.606;2022-12-18T16:11:16;43.83;;;23.57;;
20984;SDS011;10651;47.552;7.606;2022-12-18T16:14:13;43.07;;;23.37;;
20984;SDS011;10651;47.552;7.606;2022-12-18T16:16:42;46.60;;;24.70;;
20984;SDS011;10651;47.552;7.606;2022-12-18T16:19:08;49.33;;;25.50;;
20984;SDS011;10651;47.552;7.606;2022-12-18T16:21:33;41.97;;;22.50;;
20984;SDS011;10651;47.552;7.606;2022-12-18T16:24:00;43.10;;;24.23;;
20984;SDS011;10651;47.552;7.606;2022-12-18T16:26:26;48.07;;;26.50;;
20984;SDS011;10651;47.552;7.606;2022-12-18T16:28:52;51.70;;;25.20;;
20984;SDS011;10651;47.552;7.606;2022-12-18T16:31:18;48.80;;;25.13;;
20984;SDS011;10651;47.552;7.606;2022-12-18T16:33:44;53.27;;;25.07;;
20984;SDS011;10651;47.552;7.606;2022-12-18T16:36:10;48.17;;;26.27;;
20984;SDS011;10651;47.552;7.606;2022-12-18T16:38:36;43.20;;;23.67;;
20984;SDS011;10651;47.552;7.606;2022-12-18T16:41:03;47.77;;;26.03;;
20984;SDS011;10651;47.552;7.606;2022-12-18T16:44:10;48.10;;;24.17;;
20984;SDS011;10651;47.552;7.606;2022-12-18T16:46:36;46.57;;;25.00;;
20984;SDS011;10651;47.552;7.606;2022-12-18T16:49:49;47.17;;;23.87;;
20984;SDS011;10651;47.552;7.606;2022-12-18T16:52:17;45.67;;;24.87;;
20984;SDS011;10651;47.552;7.606;2022-12-18T16:54:43;50.30;;;25.57;;
20984;SDS011;10651;47.552;7.606;2022-12-18T16:57:16;52.80;;;25.87;;
20984;SDS011;10651;47.552;7.606;2022-12-18T16:59:58;46.83;;;25.13;;
20984;SDS011;10651;47.552;7.606;2022-12-18T17:02:26;49.13;;;25.87;;
20984;SDS011;10651;47.552;7.606;2022-12-18T17:05:33;47.67;;;25.17;;
20984;SDS011;10651;47.552;7.606;2022-12-18T17:08:31;53.33;;;25.63;;
20984;SDS011;10651;47.552;7.606;2022-12-18T17:11:05;47.50;;;25.53;;
20984;SDS011;10651;47.552;7.606;2022-12-18T17:13:31;51.17;;;25.60;;
20984;SDS011;10651;47.552;7.606;2022-12-18T17:16:01;44.83;;;23.90;;
20984;SDS011;10651;47.552;7.606;2022-12-18T17:18:28;51.57;;;25.73;;
20984;SDS011;10651;47.552;7.606;2022-12-18T17:21:01;51.97;;;27.23;;
20984;SDS011;10651;47.552;7.606;2022-12-18T17:23:28;41.37;;;24.70;;
20984;SDS011;10651;47.552;7.606;2022-12-18T17:25:55;50.87;;;26.83;;
20984;SDS011;10651;47.552;7.606;2022-12-18T17:28:22;58.13;;;34.10;;
20984;SDS011;10651;47.552;7.606;2022-12-18T17:30:48;54.67;;;30.00;;
20984;SDS011;10651;47.552;7.606;2022-12-18T17:33:14;53.20;;;30.47;;
20984;SDS011;10651;47.552;7.606;2022-12-18T17:35:39;55.50;;;27.73;;
20984;SDS011;10651;47.552;7.606;2022-12-18T17:38:05;51.97;;;27.93;;
20984;SDS011;10651;47.552;7.606;2022-12-18T17:40:31;54.53;;;25.83;;
20984;SDS011;10651;47.552;7.606;2022-12-18T17:42:57;48.50;;;25.67;;
20984;SDS011;10651;47.552;7.606;2022-12-18T17:45:24;52.50;;;28.17;;
20984;SDS011;10651;47.552;7.606;2022-12-18T17:47:49;56.90;;;25.90;;
20984;SDS011;10651;47.552;7.606;2022-12-18T17:50:15;51.23;;;26.63;;
20984;SDS011;10651;47.552;7.606;2022-12-18T17:52:41;49.60;;;26.43;;
20984;SDS011;10651;47.552;7.606;2022-12-18T17:55:07;51.23;;;26.30;;
20984;SDS011;10651;47.552;7.606;2022-12-18T17:57:34;57.17;;;28.73;;
20984;SDS011;10651;47.552;7.606;2022-12-18T18:00:00;58.73;;;28.47;;
20984;SDS011;10651;47.552;7.606;2022-12-18T18:02:27;55.10;;;29.80;;
20984;SDS011;10651;47.552;7.606;2022-12-18T18:04:53;55.03;;;28.90;;
20984;SDS011;10651;47.552;7.606;2022-12-18T18:07:18;54.23;;;27.87;;
20984;SDS011;10651;47.552;7.606;2022-12-18T18:09:44;57.90;;;28.70;;
20984;SDS011;10651;47.552;7.606;2022-12-18T18:12:10;52.30;;;27.10;;
20984;SDS011;10651;47.552;7.606;2022-12-18T18:14:54;54.90;;;27.17;;
20984;SDS011;10651;47.552;7.606;2022-12-18T18:17:20;53.33;;;28.13;;
20984;SDS011;10651;47.552;7.606;2022-12-18T18:19:46;58.43;;;28.07;;
20984;SDS011;10651;47.552;7.606;2022-12-18T18:22:12;56.00;;;29.03;;
20984;SDS011;10651;47.552;7.606;2022-12-18T18:24:37;59.17;;;29.03;;
20984;SDS011;10651;47.552;7.606;2022-12-18T18:27:03;57.87;;;29.63;;
20984;SDS011;10651;47.552;7.606;2022-12-18T18:29:29;60.87;;;30.27;;
20984;SDS011;10651;47.552;7.606;2022-12-18T18:31:55;65.07;;;33.20;;
20984;SDS011;10651;47.552;7.606;2022-12-18T18:37:20;66.93;;;36.80;;
20984;SDS011;10651;47.552;7.606;2022-12-18T18:39:45;65.70;;;32.03;;
20984;SDS011;10651;47.552;7.606;2022-12-18T18:42:11;62.63;;;33.73;;
20984;SDS011;10651;47.552;7.606;2022-12-18T18:44:37;58.63;;;31.87;;
20984;SDS011;10651;47.552;7.606;2022-12-18T18:47:02;63.50;;;33.83;;
20984;SDS011;10651;47.552;7.606;2022-12-18T18:49:28;64.07;;;32.93;;
20984;SDS011;10651;47.552;7.606;2022-12-18T18:51:56;66.23;;;33.00;;
20984;SDS011;10651;47.552;7.606;2022-12-18T18:54:23;64.93;;;31.17;;
20984;SDS011;10651;47.552;7.606;2022-12-18T18:56:50;59.40;;;30.03;;
20984;SDS011;10651;47.552;7.606;2022-12-18T18:59:15;70.77;;;34.73;;
20984;SDS011;10651;47.552;7.606;2022-12-18T19:01:41;66.00;;;30.57;;
20984;SDS011;10651;47.552;7.606;2022-12-18T19:04:08;63.33;;;32.13;;
20984;SDS011;10651;47.552;7.606;2022-12-18T19:06:33;68.30;;;31.67;;
20984;SDS011;10651;47.552;7.606;2022-12-18T19:09:00;65.87;;;32.20;;
20984;SDS011;10651;47.552;7.606;2022-12-18T19:11:26;62.10;;;30.53;;
20984;SDS011;10651;47.552;7.606;2022-12-18T19:14:12;62.23;;;32.80;;
20984;SDS011;10651;47.552;7.606;2022-12-18T19:16:39;71.93;;;34.67;;
20984;SDS011;10651;47.552;7.606;2022-12-18T19:19:05;75.43;;;32.30;;
20984;SDS011;10651;47.552;7.606;2022-12-18T19:21:32;73.20;;;34.53;;
20984;SDS011;10651;47.552;7.606;2022-12-18T19:23:58;68.77;;;31.53;;
20984;SDS011;10651;47.552;7.606;2022-12-18T19:26:25;76.67;;;33.30;;
20984;SDS011;10651;47.552;7.606;2022-12-18T19:28:51;61.03;;;32.03;;
20984;SDS011;10651;47.552;7.606;2022-12-18T19:31:18;76.20;;;40.53;;
20984;SDS011;10651;47.552;7.606;2022-12-18T19:33:44;76.30;;;38.50;;
20984;SDS011;10651;47.552;7.606;2022-12-18T19:38:37;73.57;;;36.90;;
20984;SDS011;10651;47.552;7.606;2022-12-18T19:41:04;72.87;;;33.47;;
20984;SDS011;10651;47.552;7.606;2022-12-18T19:43:30;77.63;;;36.13;;
20984;SDS011;10651;47.552;7.606;2022-12-18T19:45:56;71.60;;;34.60;;
20984;SDS011;10651;47.552;7.606;2022-12-18T19:48:21;70.57;;;36.73;;
20984;SDS011;10651;47.552;7.606;2022-12-18T19:50:47;75.43;;;36.40;;
20984;SDS011;10651;47.552;7.606;2022-12-18T19:53:13;71.77;;;35.47;;
20984;SDS011;10651;47.552;7.606;2022-12-18T19:55:39;71.47;;;36.53;;
20984;SDS011;10651;47.552;7.606;2022-12-18T19:58:06;68.40;;;34.63;;
20984;SDS011;10651;47.552;7.606;2022-12-18T20:00:32;78.53;;;35.67;;
20984;SDS011;10651;47.552;7.606;2022-12-18T20:02:59;74.10;;;34.07;;
20984;SDS011;10651;47.552;7.606;2022-12-18T20:05:24;74.93;;;35.23;;
20984;SDS011;10651;47.552;7.606;2022-12-18T20:07:50;76.23;;;36.43;;
20984;SDS011;10651;47.552;7.606;2022-12-18T20:10:16;79.07;;;39.73;;
20984;SDS011;10651;47.552;7.606;2022-12-18T20:12:43;73.87;;;36.27;;
20984;SDS011;10651;47.552;7.606;2022-12-18T20:15:08;76.07;;;36.57;;
20984;SDS011;10651;47.552;7.606;2022-12-18T20:17:35;76.73;;;37.53;;
20984;SDS011;10651;47.552;7.606;2022-12-18T20:20:03;78.63;;;36.00;;
20984;SDS011;10651;47.552;7.606;2022-12-18T20:22:30;79.13;;;40.07;;
20984;SDS011;10651;47.552;7.606;2022-12-18T20:24:55;80.40;;;37.90;;
20984;SDS011;10651;47.552;7.606;2022-12-18T20:27:21;77.77;;;35.57;;
20984;SDS011;10651;47.552;7.606;2022-12-18T20:29:47;74.83;;;36.77;;
20984;SDS011;10651;47.552;7.606;2022-12-18T20:32:13;78.03;;;37.43;;
20984;SDS011;10651;47.552;7.606;2022-12-18T20:34:39;72.67;;;36.00;;
20984;SDS011;10651;47.552;7.606;2022-12-18T20:37:05;76.97;;;36.73;;
20984;SDS011;10651;47.552;7.606;2022-12-18T20:39:30;75.30;;;37.60;;
20984;SDS011;10651;47.552;7.606;2022-12-18T20:41:56;71.30;;;36.47;;
20984;SDS011;10651;47.552;7.606;2022-12-18T20:44:22;76.17;;;38.40;;
20984;SDS011;10651;47.552;7.606;2022-12-18T20:46:48;79.50;;;36.70;;
20984;SDS011;10651;47.552;7.606;2022-12-18T20:49:18;74.27;;;38.77;;
20984;SDS011;10651;47.552;7.606;2022-12-18T20:51:45;81.33;;;39.57;;
20984;SDS011;10651;47.552;7.606;2022-12-18T20:54:13;77.83;;;39.43;;
20984;SDS011;10651;47.552;7.606;2022-12-18T20:56:39;75.07;;;37.40;;
20984;SDS011;10651;47.552;7.606;2022-12-18T20:59:05;85.03;;;40.43;;
20984;SDS011;10651;47.552;7.606;2022-12-18T21:01:31;81.37;;;37.83;;
20984;SDS011;10651;47.552;7.606;2022-12-18T21:03:56;86.20;;;39.67;;
20984;SDS011;10651;47.552;7.606;2022-12-18T21:06:23;82.47;;;40.07;;
20984;SDS011;10651;47.552;7.606;2022-12-18T21:08:49;83.20;;;38.87;;
20984;SDS011;10651;47.552;7.606;2022-12-18T21:13:59;86.47;;;40.07;;
20984;SDS011;10651;47.552;7.606;2022-12-18T21:16:26;90.13;;;40.13;;
20984;SDS011;10651;47.552;7.606;2022-12-18T21:18:52;88.67;;;40.77;;
20984;SDS011;10651;47.552;7.606;2022-12-18T21:21:18;85.20;;;37.30;;
20984;SDS011;10651;47.552;7.606;2022-12-18T21:23:43;82.00;;;40.80;;
20984;SDS011;10651;47.552;7.606;2022-12-18T21:26:23;87.60;;;41.60;;
20984;SDS011;10651;47.552;7.606;2022-12-18T21:28:54;83.27;;;38.90;;
20984;SDS011;10651;47.552;7.606;2022-12-18T21:31:21;79.20;;;37.30;;
20984;SDS011;10651;47.552;7.606;2022-12-18T21:33:48;82.57;;;38.70;;
20984;SDS011;10651;47.552;7.606;2022-12-18T21:36:14;81.80;;;38.00;;
20984;SDS011;10651;47.552;7.606;2022-12-18T21:38:40;82.50;;;38.43;;
20984;SDS011;10651;47.552;7.606;2022-12-18T21:41:06;82.97;;;38.13;;
20984;SDS011;10651;47.552;7.606;2022-12-18T21:43:33;83.67;;;37.97;;
20984;SDS011;10651;47.552;7.606;2022-12-18T21:46:20;84.97;;;40.03;;
20984;SDS011;10651;47.552;7.606;2022-12-18T21:48:46;90.63;;;40.10;;
20984;SDS011;10651;47.552;7.606;2022-12-18T21:51:12;83.00;;;37.23;;
20984;SDS011;10651;47.552;7.606;2022-12-18T21:53:37;84.20;;;37.93;;
20984;SDS011;10651;47.552;7.606;2022-12-18T21:56:03;82.17;;;37.80;;
20984;SDS011;10651;47.552;7.606;2022-12-18T21:58:29;84.97;;;39.90;;
20984;SDS011;10651;47.552;7.606;2022-12-18T22:00:55;79.33;;;38.23;;
20984;SDS011;10651;47.552;7.606;2022-12-18T22:03:21;78.60;;;38.13;;
20984;SDS011;10651;47.552;7.606;2022-12-18T22:05:46;88.83;;;38.10;;
20984;SDS011;10651;47.552;7.606;2022-12-18T22:08:12;85.87;;;38.27;;
20984;SDS011;10651;47.552;7.606;2022-12-18T22:10:38;82.50;;;38.63;;
20984;SDS011;10651;47.552;7.606;2022-12-18T22:13:04;81.27;;;38.97;;
20984;SDS011;10651;47.552;7.606;2022-12-18T22:15:30;82.03;;;36.03;;
20984;SDS011;10651;47.552;7.606;2022-12-18T22:17:56;87.17;;;41.53;;
20984;SDS011;10651;47.552;7.606;2022-12-18T22:20:22;82.13;;;37.07;;
20984;SDS011;10651;47.552;7.606;2022-12-18T22:22:48;80.30;;;38.43;;
20984;SDS011;10651;47.552;7.606;2022-12-18T22:25:15;84.17;;;39.10;;
20984;SDS011;10651;47.552;7.606;2022-12-18T22:27:42;77.17;;;37.23;;
20984;SDS011;10651;47.552;7.606;2022-12-18T22:30:28;91.57;;;39.53;;
20984;SDS011;10651;47.552;7.606;2022-12-18T22:32:53;92.83;;;41.70;;
20984;SDS011;10651;47.552;7.606;2022-12-18T22:35:19;87.57;;;40.30;;
20984;SDS011;10651;47.552;7.606;2022-12-18T22:37:45;84.40;;;41.83;;
20984;SDS011;10651;47.552;7.606;2022-12-18T22:40:16;84.90;;;39.03;;
20984;SDS011;10651;47.552;7.606;2022-12-18T22:42:44;81.37;;;38.63;;
20984;SDS011;10651;47.552;7.606;2022-12-18T22:45:09;87.57;;;38.83;;
20984;SDS011;10651;47.552;7.606;2022-12-18T22:47:35;82.80;;;38.57;;
20984;SDS011;10651;47.552;7.606;2022-12-18T22:50:01;90.07;;;42.27;;
20984;SDS011;10651;47.552;7.606;2022-12-18T22:52:26;85.10;;;40.37;;
20984;SDS011;10651;47.552;7.606;2022-12-18T22:54:52;86.13;;;39.07;;
20984;SDS011;10651;47.552;7.606;2022-12-18T22:57:18;88.10;;;40.13;;
20984;SDS011;10651;47.552;7.606;2022-12-18T22:59:44;85.33;;;40.80;;
20984;SDS011;10651;47.552;7.606;2022-12-18T23:02:09;86.57;;;38.97;;
20984;SDS011;10651;47.552;7.606;2022-12-18T23:04:35;79.47;;;38.60;;
20984;SDS011;10651;47.552;7.606;2022-12-18T23:07:01;82.23;;;37.70;;
20984;SDS011;10651;47.552;7.606;2022-12-18T23:09:27;88.57;;;36.23;;
